Time;durP1;ratioP1;P1;durP2;ratioP2;P2;SDS_P1;SDS_P2;PMS_P1;PMS_P2;Temp;Humidity;BMP_temperature;BMP_pressure;BME280_temperature;BME280_humidity;BME280_pressure;Samples;Min_cycle;Max_cycle;Signal;HPM_P1;HPM_P2
2021/07/01 00:00:52;;;;;;;;;16.50;14.25;;;;;19.67;56.78;101248.50;5070805;28;45313;-50
2021/07/01 00:03:18;;;;;;;;;25.25;24.25;;;;;19.68;56.74;101238.59;5057062;28;45335;-49
2021/07/01 00:05:43;;;;;;;;;19.25;17.50;;;;;19.66;56.97;101238.69;5058528;28;45299;-50
2021/07/01 00:08:10;;;;;;;;;20.00;15.25;;;;;19.66;56.68;101240.50;5076214;28;47293;-46
2021/07/01 00:10:36;;;;;;;;;17.50;16.00;;;;;19.67;56.89;101239.53;5068762;27;45435;-51
2021/07/01 00:13:02;;;;;;;;;20.25;18.00;;;;;19.67;56.51;101239.53;5071670;28;45319;-49
2021/07/01 00:15:30;;;;;;;;;17.00;15.25;;;;;19.66;56.39;101240.50;5088429;27;45507;-46
2021/07/01 00:17:56;;;;;;;;;14.75;14.75;;;;;19.63;56.45;101246.91;5066585;27;49873;-50
2021/07/01 00:20:22;;;;;;;;;14.75;13.75;;;;;19.61;56.52;101243.44;5060515;28;45561;-50
2021/07/01 00:22:48;;;;;;;;;12.50;12.50;;;;;19.58;56.75;101238.22;5065912;28;45649;-45
2021/07/01 00:25:14;;;;;;;;;14.50;13.50;;;;;19.58;56.83;101243.59;5072013;28;45456;-48
2021/07/01 00:27:40;;;;;;;;;13.00;13.00;;;;;19.57;56.64;101243.69;5071561;28;48179;-46
2021/07/01 00:30:08;;;;;;;;;13.50;12.00;;;;;19.55;56.79;101241.03;5068548;28;45227;-48
2021/07/01 00:32:34;;;;;;;;;12.00;12.00;;;;;19.55;56.77;101245.56;5069544;27;45469;-47
2021/07/01 00:34:59;;;;;;;;;10.25;9.25;;;;;19.55;56.47;101240.16;5078061;28;45709;-48
2021/07/01 00:37:26;;;;;;;;;11.25;11.25;;;;;19.54;56.65;101243.78;5069404;28;47363;-48
2021/07/01 00:39:51;;;;;;;;;11.50;11.50;;;;;19.53;56.55;101244.72;5073667;28;45863;-50
2021/07/01 00:42:17;;;;;;;;;8.75;8.75;;;;;19.48;56.41;101236.91;5073877;28;45262;-47
2021/07/01 00:44:42;;;;;;;;;11.00;9.33;;;;;19.48;56.59;101244.09;5069692;27;45599;-46
2021/07/01 00:47:08;;;;;;;;;12.33;10.00;;;;;19.47;56.69;101245.06;5070922;27;48179;-47
2021/07/01 00:49:34;;;;;;;;;10.00;9.67;;;;;19.47;56.69;101237.84;5081522;27;45344;-47
2021/07/01 00:52:00;;;;;;;;;12.00;10.67;;;;;19.47;56.58;101239.66;5072924;27;45364;-46
2021/07/01 00:54:25;;;;;;;;;9.00;8.67;;;;;19.47;56.67;101237.84;5070385;28;45373;-46
2021/07/01 00:56:51;;;;;;;;;12.00;10.00;;;;;19.47;56.61;101236.97;5066574;28;47013;-50
2021/07/01 00:59:17;;;;;;;;;19.75;18.75;;;;;19.46;56.77;101237.94;5070315;27;45382;-47
2021/07/01 01:01:42;;;;;;;;;14.75;14.00;;;;;19.46;56.94;101240.63;5074465;28;45486;-46
2021/07/01 01:04:09;;;;;;;;;12.50;11.75;;;;;19.45;56.95;101234.38;5071175;27;45822;-50
2021/07/01 01:06:35;;;;;;;;;12.50;12.50;;;;;19.45;56.80;101231.69;5080448;27;45466;-46
2021/07/01 01:09:05;;;;;;;;;12.00;12.00;;;;;19.46;57.00;101235.25;5076522;27;45389;-47
2021/07/01 01:11:31;;;;;;;;;11.25;11.25;;;;;19.45;56.99;101241.56;5066727;28;45537;-47
2021/07/01 01:13:57;;;;;;;;;10.50;10.25;;;;;19.45;57.23;101234.38;5070571;28;45358;-46
2021/07/01 01:16:23;;;;;;;;;14.25;11.50;;;;;19.46;56.91;101243.31;5075337;27;48633;-49
2021/07/01 01:18:50;;;;;;;;;11.67;9.67;;;;;19.48;56.91;101239.59;5060348;27;45612;-46
2021/07/01 01:21:17;;;;;;;;;13.00;12.00;;;;;19.49;57.05;101241.31;5053329;28;45687;-49
2021/07/01 01:23:43;;;;;;;;;10.33;9.00;;;;;19.50;57.19;101237.69;5073317;27;45369;-48
2021/07/01 01:26:09;;;;;;;;;11.50;10.25;;;;;19.49;57.26;101232.38;5073871;28;47684;-50
2021/07/01 01:28:38;;;;;;;;;11.00;9.67;;;;;19.49;57.13;101232.38;5068839;28;45357;-47
2021/07/01 01:31:04;;;;;;;;;10.50;9.00;;;;;19.50;56.65;101228.75;5067302;27;45334;-50
2021/07/01 01:33:30;;;;;;;;;10.33;8.33;;;;;19.48;56.60;101239.59;5072598;27;45395;-48
2021/07/01 01:35:56;;;;;;;;;7.00;7.00;;;;;19.47;56.62;101235.16;5065109;28;48356;-46
2021/07/01 01:38:22;;;;;;;;;11.67;10.67;;;;;19.46;56.89;101229.84;5065572;27;45338;-47
2021/07/01 01:40:48;;;;;;;;;8.33;8.33;;;;;19.46;56.90;101241.50;5072505;27;45396;-46
2021/07/01 01:43:16;;;;;;;;;10.33;7.67;;;;;19.47;57.19;101237.84;5064467;27;45360;-46
2021/07/01 01:45:42;;;;;;;;;10.67;9.67;;;;;19.47;56.99;101231.59;5076445;27;47186;-48
2021/07/01 01:48:08;;;;;;;;;7.33;7.00;;;;;19.48;56.83;101244.09;5068374;27;45706;-47
2021/07/01 01:50:34;;;;;;;;;8.00;7.50;;;;;19.47;57.13;101236.97;5069662;27;45644;-49
2021/07/01 01:53:00;;;;;;;;;9.00;9.00;;;;;19.48;57.00;101231.50;5066245;28;45489;-50
2021/07/01 01:55:26;;;;;;;;;8.00;8.00;;;;;19.48;57.00;101230.66;5078179;27;48314;-46
2021/07/01 01:57:52;;;;;;;;;13.67;13.00;;;;;19.45;57.00;101231.69;5066767;27;46035;-48
2021/07/01 02:00:23;;;;;;;;;11.67;11.67;;;;;19.42;56.88;101229.97;5080451;27;45610;-46
2021/07/01 02:02:48;;;;;;;;;6.33;6.33;;;;;19.40;56.86;101231.88;5061848;27;45357;-46
2021/07/01 02:05:14;;;;;;;;;12.33;12.33;;;;;19.38;57.16;101228.41;5071444;28;47904;-49
2021/07/01 02:07:40;;;;;;;;;10.00;10.00;;;;;19.37;56.97;101228.50;5078574;28;45765;-47
2021/07/01 02:10:11;;;;;;;;;10.25;9.25;;;;;19.36;57.23;101219.53;5067821;28;45781;-48
2021/07/01 02:12:37;;;;;;;;;12.75;12.75;;;;;19.34;57.09;101229.50;5073947;27;45429;-46
2021/07/01 02:15:05;;;;;;;;;8.67;8.67;;;;;19.31;57.17;101226.09;5072652;28;46956;-47
2021/07/01 02:17:34;;;;;;;;;11.50;11.50;;;;;19.26;57.42;101230.84;5072919;27;45554;-45
2021/07/01 02:20:00;;;;;;;;;13.00;12.00;;;;;19.24;57.67;101225.53;5070504;27;45587;-48
2021/07/01 02:22:26;;;;;;;;;13.00;11.00;;;;;19.22;57.90;101227.44;5061599;28;45527;-47
2021/07/01 02:24:51;;;;;;;;;12.00;12.00;;;;;19.19;57.50;101224.91;5073309;28;47495;-46
2021/07/01 02:27:17;;;;;;;;;15.00;15.00;;;;;19.15;57.51;101225.09;5088252;27;45427;-48
2021/07/01 02:29:42;;;;;;;;;9.75;9.75;;;;;19.11;57.33;101221.72;5074291;27;45408;-48
2021/07/01 02:32:08;;;;;;;;;9.00;9.00;;;;;19.09;57.97;101229.84;5059852;28;45391;-47
2021/07/01 02:34:39;;;;;;;;;15.00;14.00;;;;;19.09;58.01;101229.00;5076792;28;47254;-47
2021/07/01 02:37:06;;;;;;;;;12.25;11.50;;;;;19.08;58.17;101221.88;5095856;27;45868;-47
2021/07/01 02:39:31;;;;;;;;;7.75;7.00;;;;;19.08;58.02;101219.19;5078920;27;45422;-49
2021/07/01 02:41:57;;;;;;;;;13.67;10.67;;;;;19.09;57.94;101223.59;5071975;28;45685;-46
2021/07/01 02:44:22;;;;;;;;;11.50;10.75;;;;;19.07;58.34;101221.00;5066497;28;47418;-46
2021/07/01 02:46:48;;;;;;;;;15.00;13.00;;;;;19.07;58.00;101215.63;5077659;27;45662;-47
2021/07/01 02:49:13;;;;;;;;;10.25;10.25;;;;;19.05;58.30;101217.47;5065276;27;45330;-46
2021/07/01 02:51:38;;;;;;;;;16.00;12.50;;;;;19.05;58.37;101213.91;5076958;27;45534;-46
2021/07/01 02:54:04;;;;;;;;;10.75;10.75;;;;;19.04;58.60;101213.03;5065711;28;46914;-48
2021/07/01 02:56:39;;;;;;;;;11.50;10.50;;;;;19.05;58.52;101219.31;5069877;28;45504;-48
2021/07/01 02:59:09;;;;;;;;;16.25;15.25;;;;;19.02;58.86;101214.94;5073045;28;45458;-46
2021/07/01 03:01:35;;;;;;;;;14.00;14.00;;;;;19.01;58.47;101218.59;5070733;28;45498;-47
2021/07/01 03:04:00;;;;;;;;;15.00;13.75;;;;;18.99;58.77;101220.47;5079011;27;46989;-47
2021/07/01 03:06:26;;;;;;;;;15.25;14.75;;;;;18.98;58.43;101216.06;5072352;28;45633;-49
2021/07/01 03:08:54;;;;;;;;;11.25;9.25;;;;;18.94;58.32;101209.09;5068264;28;45760;-46
2021/07/01 03:11:19;;;;;;;;;12.50;11.25;;;;;18.92;58.78;101208.25;5059526;28;45413;-48
2021/07/01 03:13:45;;;;;;;;;13.00;11.50;;;;;18.93;58.77;101203.75;5062356;28;45666;-47
2021/07/01 03:16:10;;;;;;;;;12.50;12.00;;;;;18.93;58.73;101203.75;5067293;27;45667;-47
2021/07/01 03:18:36;;;;;;;;;12.00;10.50;;;;;18.89;58.60;101194.97;5067055;28;45394;-48
2021/07/01 03:21:01;;;;;;;;;17.25;16.00;;;;;18.89;58.88;101207.56;5064725;28;45408;-47
2021/07/01 03:23:27;;;;;;;;;14.25;13.25;;;;;18.90;59.15;101203.91;5065925;28;47030;-49
2021/07/01 03:25:52;;;;;;;;;11.25;11.25;;;;;18.90;58.98;101203.91;5072216;28;45667;-45
2021/07/01 03:28:18;;;;;;;;;15.75;12.50;;;;;18.90;59.18;101206.59;5072519;28;45591;-47
2021/07/01 03:30:43;;;;;;;;;12.50;12.00;;;;;18.91;59.02;101201.16;5065066;27;45268;-49
2021/07/01 03:33:09;;;;;;;;;13.25;12.50;;;;;18.92;59.30;101202.00;5078766;27;45952;-46
2021/07/01 03:35:34;;;;;;;;;13.75;13.25;;;;;18.92;59.19;101204.72;5076394;27;45894;-49
2021/07/01 03:38:00;;;;;;;;;11.25;11.00;;;;;18.91;59.10;101202.97;5070180;27;45488;-47
2021/07/01 03:40:26;;;;;;;;;17.25;14.00;;;;;18.86;59.08;101203.19;5072236;27;45567;-47
2021/07/01 03:42:52;;;;;;;;;14.00;13.75;;;;;18.79;59.40;101201.75;5056703;28;46939;-50
2021/07/01 03:45:17;;;;;;;;;11.50;11.50;;;;;18.75;59.73;101202.84;5089079;27;45355;-49
2021/07/01 03:47:42;;;;;;;;;18.75;16.25;;;;;18.72;59.46;101201.19;5087223;27;45725;-47
2021/07/01 03:50:08;;;;;;;;;15.00;14.50;;;;;18.65;59.49;101205.09;5064078;27;45356;-50
2021/07/01 03:52:34;;;;;;;;;12.75;12.75;;;;;18.61;59.77;101211.53;5070100;28;47401;-48
2021/07/01 03:54:59;;;;;;;;;16.00;14.00;;;;;18.57;59.92;101214.44;5064675;28;45338;-47
2021/07/01 03:57:25;;;;;;;;;18.50;13.50;;;;;18.58;60.14;101208.13;5070556;27;45838;-45
2021/07/01 03:59:50;;;;;;;;;15.00;13.00;;;;;18.58;60.12;101222.44;5071564;28;45543;-49
2021/07/01 04:02:16;;;;;;;;;15.25;14.00;;;;;18.58;60.13;101213.50;5064194;28;47492;-47
2021/07/01 04:04:41;;;;;;;;;12.75;12.25;;;;;18.59;60.40;101226.00;5064515;27;45660;-48
2021/07/01 04:07:08;;;;;;;;;16.50;15.75;;;;;18.59;60.09;101215.25;5078005;27;45729;-49
2021/07/01 04:09:33;;;;;;;;;15.75;14.25;;;;;18.60;60.02;101212.47;5061511;27;45580;-48
2021/07/01 04:11:59;;;;;;;;;13.25;12.50;;;;;18.61;59.79;101207.97;5059156;28;48116;-47
2021/07/01 04:14:24;;;;;;;;;13.00;13.00;;;;;18.59;59.88;101208.03;5076074;27;45629;-50
2021/07/01 04:16:50;;;;;;;;;19.25;19.25;;;;;18.58;59.76;101209.00;5073068;27;46348;-48
2021/07/01 04:19:15;;;;;;;;;15.00;15.00;;;;;18.58;59.76;101209.00;5075417;27;45383;-48
2021/07/01 04:21:41;;;;;;;;;13.25;13.25;;;;;18.57;59.57;101217.13;5076302;27;48314;-48
2021/07/01 04:24:06;;;;;;;;;13.50;11.50;;;;;18.52;59.68;101210.13;5072864;27;45941;-47
2021/07/01 04:26:33;;;;;;;;;16.25;15.25;;;;;18.54;59.68;101213.63;5077380;27;45541;-46
2021/07/01 04:28:58;;;;;;;;;16.00;15.25;;;;;18.58;60.05;101218.88;5066621;27;45316;-46
2021/07/01 04:31:24;;;;;;;;;15.75;14.50;;;;;18.58;59.69;101217.06;5074450;27;47227;-49
2021/07/01 04:33:49;;;;;;;;;16.00;14.00;;;;;18.60;59.59;101220.53;5073592;27;45598;-48
2021/07/01 04:36:15;;;;;;;;;16.75;14.00;;;;;18.60;59.46;101219.66;5073990;27;45665;-49
2021/07/01 04:38:41;;;;;;;;;15.00;14.75;;;;;18.60;59.55;101216.97;5076254;27;45529;-49
2021/07/01 04:41:06;;;;;;;;;18.00;18.00;;;;;18.63;59.78;101222.22;5075021;27;47160;-49
2021/07/01 04:43:32;;;;;;;;;16.67;16.33;;;;;18.66;59.80;101222.09;5071461;27;46485;-47
2021/07/01 04:45:57;;;;;;;;;16.75;14.75;;;;;18.71;59.84;101223.63;5075224;27;45658;-48
2021/07/01 04:48:23;;;;;;;;;13.00;12.00;;;;;18.76;59.49;101231.47;5088818;27;45781;-47
2021/07/01 04:50:48;;;;;;;;;14.75;14.00;;;;;18.79;59.68;101224.13;5068977;28;47861;-46
2021/07/01 04:53:14;;;;;;;;;14.75;14.75;;;;;18.84;59.80;101231.13;5076513;27;45492;-48
2021/07/01 04:55:39;;;;;;;;;15.00;15.00;;;;;18.86;59.64;101229.22;5076733;27;45420;-49
2021/07/01 04:58:05;;;;;;;;;14.75;14.75;;;;;18.87;59.32;101226.47;5077610;27;45241;-48
2021/07/01 05:00:30;;;;;;;;;22.00;22.00;;;;;18.87;59.31;101230.97;5072865;27;46894;-48
2021/07/01 05:02:56;;;;;;;;;18.25;16.50;;;;;18.88;59.11;101224.63;5066843;27;45657;-51
2021/07/01 05:05:21;;;;;;;;;15.00;15.00;;;;;18.86;59.30;101231.91;5068806;27;45265;-49
2021/07/01 05:07:47;;;;;;;;;17.75;17.00;;;;;18.84;58.82;101236.50;5062072;28;45420;-51
2021/07/01 05:10:15;;;;;;;;;15.50;14.75;;;;;18.81;59.11;101230.31;5067809;27;48162;-49
2021/07/01 05:12:41;;;;;;;;;19.25;15.50;;;;;18.79;59.04;101242.94;5062037;27;45467;-50
2021/07/01 05:15:07;;;;;;;;;14.25;14.25;;;;;18.77;58.87;101241.28;5076853;27;45589;-49
2021/07/01 05:17:35;;;;;;;;;14.75;13.75;;;;;18.74;58.87;101245.00;5096180;27;45353;-52
2021/07/01 05:20:01;;;;;;;;;17.25;17.00;;;;;18.71;59.08;101238.91;5067286;27;47264;-50
2021/07/01 05:22:27;;;;;;;;;16.50;14.25;;;;;18.68;59.02;101237.22;5077605;27;45910;-51
2021/07/01 05:24:52;;;;;;;;;15.25;15.25;;;;;18.67;58.79;101238.16;5090313;27;45366;-50
2021/07/01 05:27:18;;;;;;;;;15.25;15.00;;;;;18.66;58.99;101243.59;5079893;27;45435;-50
2021/07/01 05:29:43;;;;;;;;;11.50;8.50;;;;;18.65;58.97;101239.16;5079873;27;45814;-49
2021/07/01 05:32:09;;;;;;;;;15.25;12.75;;;;;18.62;58.88;101240.16;5077635;27;45380;-50
2021/07/01 05:34:34;;;;;;;;;18.00;16.25;;;;;18.60;59.10;101244.72;5073659;27;46144;-49
2021/07/01 05:37:00;;;;;;;;;15.50;13.50;;;;;18.62;59.00;101239.28;5075954;27;45360;-47
2021/07/01 05:39:25;;;;;;;;;16.00;15.50;;;;;18.59;58.99;101245.69;5074882;27;47314;-50
2021/07/01 05:41:51;;;;;;;;;15.67;12.67;;;;;18.60;58.92;101247.44;5075772;27;46171;-47
2021/07/01 05:44:16;;;;;;;;;14.00;14.00;;;;;18.62;58.91;101248.22;5073675;27;45277;-50
2021/07/01 05:46:42;;;;;;;;;18.75;16.00;;;;;18.63;58.96;101252.66;5066865;27;47250;-52
2021/07/01 05:49:08;;;;;;;;;15.25;14.50;;;;;18.65;59.49;101252.59;5077689;27;48081;-48
2021/07/01 05:51:35;;;;;;;;;19.50;14.50;;;;;18.68;58.93;101256.03;5078344;27;45845;-51
2021/07/01 05:54:26;;;;;;;;;18.25;15.25;;;;;18.72;58.79;101256.78;5076662;27;45368;-49
2021/07/01 05:56:49;;;;;;;;;16.00;16.00;;;;;18.71;58.64;101253.22;5069890;27;45365;-53
2021/07/01 05:59:15;;;;;;;;;19.75;15.75;;;;;18.70;58.70;101250.59;5070990;27;46029;-47
2021/07/01 06:01:40;;;;;;;;;18.75;16.50;;;;;18.72;58.74;101248.69;5076556;27;45366;-52
2021/07/01 06:04:07;;;;;;;;;17.75;17.00;;;;;18.75;58.53;101256.63;5077904;27;45373;-48
2021/07/01 06:06:39;;;;;;;;;21.75;19.00;;;;;18.79;58.33;101252.81;5076025;27;45702;-52
2021/07/01 06:09:05;;;;;;;;;14.25;14.25;;;;;18.82;58.31;101255.41;5078391;27;46068;-50
2021/07/01 06:11:36;;;;;;;;;14.75;14.00;;;;;18.89;58.13;101264.03;5080333;27;45448;-47
2021/07/01 06:14:05;;;;;;;;;15.00;15.00;;;;;18.92;58.05;101253.13;5076050;27;45408;-49
2021/07/01 06:16:36;;;;;;;;;15.75;13.50;;;;;18.96;58.06;101249.34;5079396;27;45599;-48
2021/07/01 06:19:04;;;;;;;;;13.50;13.50;;;;;19.02;57.88;101259.81;5082914;27;48195;-48
2021/07/01 06:21:31;;;;;;;;;16.25;14.50;;;;;19.09;57.72;101262.13;5075096;27;45523;-47
2021/07/01 06:23:57;;;;;;;;;15.50;15.50;;;;;19.16;57.62;101264.53;5062778;27;45476;-51
2021/07/01 06:26:29;;;;;;;;;18.75;16.00;;;;;19.22;57.58;101270.50;5073559;27;45286;-49
2021/07/01 06:28:55;;;;;;;;;16.00;16.00;;;;;19.27;57.32;101264.88;5061571;27;45597;-49
2021/07/01 06:31:22;;;;;;;;;18.25;18.25;;;;;19.31;57.63;101270.03;5076878;27;45646;-51
2021/07/01 06:33:48;;;;;;;;;17.00;16.00;;;;;19.36;57.38;101268.00;5073112;27;45372;-53
2021/07/01 06:36:14;;;;;;;;;16.50;16.25;;;;;19.42;57.15;101269.50;5078439;27;45431;-49
2021/07/01 06:38:45;;;;;;;;;17.50;15.00;;;;;19.49;57.05;101272.75;5070224;27;47403;-51
2021/07/01 06:41:11;;;;;;;;;17.00;15.75;;;;;19.53;56.75;101269.81;5075779;27;45603;-50
2021/07/01 06:43:36;;;;;;;;;18.25;17.75;;;;;19.56;56.69;101266.13;5079081;27;45496;-50
2021/07/01 06:46:04;;;;;;;;;15.75;15.50;;;;;19.54;56.61;101266.19;5076572;27;45381;-51
2021/07/01 06:48:30;;;;;;;;;16.50;15.00;;;;;19.57;56.34;101262.53;5070610;27;47345;-52
2021/07/01 06:51:00;;;;;;;;;16.00;16.00;;;;;19.60;56.45;101265.94;5075580;27;45492;-52
2021/07/01 06:53:28;;;;;;;;;14.75;12.50;;;;;19.64;56.39;101261.25;5085754;27;45393;-48
2021/07/01 06:55:54;;;;;;;;;17.25;15.25;;;;;19.66;56.47;101268.28;5073700;28;45305;-52
2021/07/01 06:58:20;;;;;;;;;16.00;15.75;;;;;19.72;56.07;101266.25;5075520;27;48085;-49
2021/07/01 07:00:47;;;;;;;;;14.75;13.50;;;;;19.73;55.70;101276.94;5071777;27;46046;-51
2021/07/01 07:03:18;;;;;;;;;7.67;7.67;;;;;19.75;55.61;101276.88;5074665;27;45752;-51
2021/07/01 07:05:54;;;;;;;;;11.25;11.25;;;;;19.75;55.54;101269.66;5075074;27;45559;-53
2021/07/01 07:08:21;;;;;;;;;13.50;12.25;;;;;19.72;55.06;101272.50;5074447;27;47468;-51
2021/07/01 07:10:48;;;;;;;;;15.25;13.00;;;;;19.67;55.43;101278.13;5073942;27;45452;-53
2021/07/01 07:13:15;;;;;;;;;12.75;11.00;;;;;19.65;55.22;101284.53;5055820;27;45407;-49
2021/07/01 07:15:43;;;;;;;;;12.25;12.25;;;;;19.62;54.83;101285.56;5088373;27;45852;-48
2021/07/01 07:18:27;;;;;;;;;12.75;10.25;;;;;19.57;54.98;101282.25;5070534;27;47415;-51
2021/07/01 07:20:56;;;;;;;;;12.00;9.75;;;;;19.53;54.76;101288.69;5073207;27;46168;-50
2021/07/01 07:23:32;;;;;;;;;14.25;13.75;;;;;19.49;54.72;101283.53;5077809;27;45568;-50
2021/07/01 07:26:07;;;;;;;;;12.50;12.00;;;;;19.45;54.74;101290.91;5066292;27;46162;-50
2021/07/01 07:28:36;;;;;;;;;17.00;15.75;;;;;19.42;54.88;101285.63;5074315;27;48297;-50
2021/07/01 07:31:04;;;;;;;;;17.00;14.00;;;;;19.37;54.69;101291.25;5067143;27;45903;-51
2021/07/01 07:33:29;;;;;;;;;14.50;14.25;;;;;19.34;55.09;101299.50;5070183;27;45943;-50
2021/07/01 07:35:56;;;;;;;;;18.00;17.00;;;;;19.33;55.09;101292.38;5077242;27;45308;-50
2021/07/01 07:38:25;;;;;;;;;15.50;15.50;;;;;19.33;54.82;101288.81;5057634;27;47168;-50
2021/07/01 07:40:52;;;;;;;;;13.00;13.00;;;;;19.31;55.14;101290.66;5059388;27;45258;-50
2021/07/01 07:43:19;;;;;;;;;16.25;15.25;;;;;19.31;55.17;101291.56;5053789;28;45509;-53
2021/07/01 07:45:50;;;;;;;;;15.75;14.00;;;;;19.33;55.39;101286.97;5075913;27;45545;-51
2021/07/01 07:48:15;;;;;;;;;19.00;18.75;;;;;19.35;55.01;101287.78;5083218;27;46208;-52
2021/07/01 07:50:44;;;;;;;;;15.75;15.75;;;;;19.38;54.99;101290.31;5072215;27;45616;-53
2021/07/01 07:53:20;;;;;;;;;15.25;15.00;;;;;19.42;55.25;101294.59;5093553;27;45431;-51
2021/07/01 07:55:49;;;;;;;;;18.00;16.75;;;;;19.46;55.10;101281.00;5072330;27;45392;-49
2021/07/01 07:58:16;;;;;;;;;14.25;14.00;;;;;19.53;55.22;101282.41;5093230;27;47636;-51
2021/07/01 08:00:43;;;;;;;;;21.50;21.50;;;;;19.59;55.34;101291.09;5073243;27;45638;-50
2021/07/01 08:03:10;;;;;;;;;19.50;18.50;;;;;19.62;55.22;101290.94;5077704;27;45396;-51
2021/07/01 08:05:38;;;;;;;;;23.50;21.50;;;;;19.68;55.13;101298.72;5076678;27;45699;-50
2021/07/01 08:08:05;;;;;;;;;19.25;17.25;;;;;19.75;54.90;101290.34;5077038;27;47464;-49
2021/07/01 08:10:32;;;;;;;;;22.50;20.75;;;;;19.87;54.94;101289.72;5069525;27;46166;-50
2021/07/01 08:13:07;;;;;;;;;18.75;18.75;;;;;19.97;54.66;101286.47;5075870;27;45406;-51
2021/07/01 08:15:35;;;;;;;;;18.25;17.75;;;;;20.06;54.58;101289.63;5062983;27;45292;-49
2021/07/01 08:18:04;;;;;;;;;19.50;19.25;;;;;20.15;54.52;101289.16;5063460;27;47571;-51
2021/07/01 08:20:31;;;;;;;;;22.50;19.25;;;;;20.22;54.33;101279.81;5075553;27;46034;-50
2021/07/01 08:22:57;;;;;;;;;21.50;19.25;;;;;20.28;54.15;101279.47;5092942;27;45472;-53
2021/07/01 08:25:24;;;;;;;;;22.50;21.50;;;;;20.37;54.01;101278.09;5085376;27;45496;-49
2021/07/01 08:27:52;;;;;;;;;23.75;21.00;;;;;20.43;53.74;101273.28;5076166;27;45575;-51
2021/07/01 08:30:23;;;;;;;;;23.50;23.25;;;;;20.51;53.84;101270.19;5060830;27;45671;-48
2021/07/01 08:32:58;;;;;;;;;20.50;19.50;;;;;20.61;54.17;101271.44;5076885;27;45430;-53
2021/07/01 08:35:25;;;;;;;;;23.75;23.00;;;;;20.72;53.59;101260.91;5066210;28;45380;-50
2021/07/01 08:37:55;;;;;;;;;26.50;23.00;;;;;20.78;53.57;101262.41;5075448;27;48103;-52
2021/07/01 08:40:29;;;;;;;;;22.00;21.00;;;;;20.82;53.16;101258.56;5076202;27;45348;-51
2021/07/01 08:42:58;;;;;;;;;22.00;22.00;;;;;20.87;53.41;101259.19;5073893;27;45429;-53
2021/07/01 08:45:48;;;;;;;;;22.00;22.00;;;;;20.88;53.11;101262.75;5073782;27;45576;-52
2021/07/01 08:48:21;;;;;;;;;22.50;20.00;;;;;20.90;52.44;101267.09;5066667;27;48475;-51
2021/07/01 08:50:55;;;;;;;;;18.75;18.75;;;;;20.94;52.46;101265.97;5075379;27;45781;-52
2021/07/01 08:53:36;;;;;;;;;25.00;23.75;;;;;21.00;52.94;101272.88;5078469;27;45589;-50
2021/07/01 08:56:03;;;;;;;;;20.50;19.75;;;;;21.03;52.36;101276.25;5094025;27;45724;-51
2021/07/01 08:58:32;;;;;;;;;19.25;19.00;;;;;21.05;52.74;101277.03;5081044;27;47101;-51
2021/07/01 09:01:01;;;;;;;;;25.25;24.50;;;;;21.06;52.58;101267.97;5072878;27;45466;-51
2021/07/01 09:03:28;;;;;;;;;24.50;20.25;;;;;21.10;52.33;101274.09;5066335;27;45726;-52
2021/07/01 09:05:55;;;;;;;;;23.50;22.25;;;;;21.18;52.11;101274.50;5075361;27;45348;-51
2021/07/01 09:08:22;;;;;;;;;22.50;21.25;;;;;21.20;51.90;101264.50;5090158;27;47187;-53
2021/07/01 09:10:52;;;;;;;;;24.25;22.25;;;;;21.17;51.74;101272.78;5073847;27;45334;-52
2021/07/01 09:13:22;;;;;;;;;23.25;22.00;;;;;21.11;51.66;101271.31;5072397;27;45589;-52
2021/07/01 09:15:49;;;;;;;;;24.25;23.50;;;;;21.07;52.16;101271.53;5080875;27;46041;-50
2021/07/01 09:18:15;;;;;;;;;23.25;21.25;;;;;21.04;52.28;101274.44;5079810;27;47759;-50
2021/07/01 09:20:41;;;;;;;;;20.50;20.25;;;;;21.05;51.75;101270.75;5075808;27;45842;-49
2021/07/01 09:23:09;;;;;;;;;21.25;20.00;;;;;21.06;51.94;101273.38;5095563;27;45525;-50
2021/07/01 09:25:36;;;;;;;;;18.50;17.75;;;;;21.04;51.59;101278.00;5073806;27;45516;-51
2021/07/01 09:28:03;;;;;;;;;20.50;20.25;;;;;21.06;51.87;101272.50;5074172;27;46002;-51
2021/07/01 09:30:31;;;;;;;;;16.75;16.75;;;;;21.10;51.20;101274.97;5085188;27;46737;-52
2021/07/01 09:32:58;;;;;;;;;17.50;15.75;;;;;21.12;50.90;101266.78;5059525;27;45382;-53
2021/07/01 09:35:25;;;;;;;;;15.75;14.50;;;;;21.20;51.21;101269.03;5092031;27;45390;-52
2021/07/01 09:37:52;;;;;;;;;17.25;17.25;;;;;21.31;50.75;101267.47;5073640;27;47347;-53
2021/07/01 09:40:20;;;;;;;;;16.75;16.50;;;;;21.43;51.11;101269.47;5066736;27;45538;-50
2021/07/01 09:42:53;;;;;;;;;17.75;17.75;;;;;21.58;50.58;101265.00;5080426;27;45447;-54
2021/07/01 09:45:25;;;;;;;;;20.50;19.50;;;;;21.71;50.54;101278.66;5061644;27;45456;-51
2021/07/01 09:47:53;;;;;;;;;20.50;18.75;;;;;21.78;50.56;101277.34;5084834;27;47390;-49
2021/07/01 09:50:22;;;;;;;;;18.25;17.00;;;;;21.84;50.10;101278.78;5072090;27;45569;-49
2021/07/01 09:52:51;;;;;;;;;21.00;19.25;;;;;21.87;49.95;101276.81;5065463;27;45477;-52
2021/07/01 09:55:18;;;;;;;;;24.00;22.25;;;;;21.92;49.80;101284.63;5065545;27;45303;-48
2021/07/01 09:57:49;;;;;;;;;22.25;21.00;;;;;21.95;49.23;101279.91;5068949;27;48438;-51
2021/07/01 10:00:16;;;;;;;;;20.50;20.50;;;;;21.98;49.80;101278.88;5072433;27;46053;-52
2021/07/01 10:02:42;;;;;;;;;21.25;20.75;;;;;22.04;49.73;101278.47;5096029;27;45644;-51
2021/07/01 10:05:25;;;;;;;;;22.00;21.25;;;;;22.12;49.75;101272.66;5079228;27;45514;-51
2021/07/01 10:07:50;;;;;;;;;18.75;18.75;;;;;22.19;49.43;101271.28;5079235;27;47530;-52
2021/07/01 10:10:16;;;;;;;;;23.00;22.50;;;;;22.26;49.01;101268.13;5095401;27;45413;-49
2021/07/01 10:12:48;;;;;;;;;19.25;19.25;;;;;22.36;49.42;101268.44;5079781;27;45378;-48
2021/07/01 10:15:23;;;;;;;;;25.75;24.75;;;;;22.49;49.08;101264.00;5071576;27;45242;-47
2021/07/01 10:18:11;;;;;;;;;23.50;21.75;;;;;22.60;48.79;101261.47;5077872;27;47246;-51
2021/07/01 10:20:39;;;;;;;;;28.75;23.50;;;;;22.71;48.57;101259.91;5095526;27;45333;-53
2021/07/01 10:23:21;;;;;;;;;19.50;18.75;;;;;22.85;48.47;101262.66;5074943;27;45486;-50
2021/07/01 10:25:50;;;;;;;;;30.25;26.00;;;;;22.94;47.95;101258.47;5060468;27;45635;-50
2021/07/01 10:28:17;;;;;;;;;22.25;22.25;;;;;22.97;47.74;101260.97;5060067;27;47360;-52
2021/07/01 10:30:55;;;;;;;;;25.75;23.50;;;;;23.02;47.79;101261.56;5069614;27;45404;-51
2021/07/01 10:33:27;;;;;;;;;23.75;21.25;;;;;23.09;47.76;101257.47;5079428;27;45548;-52
2021/07/01 10:35:55;;;;;;;;;21.00;19.25;;;;;23.16;47.71;101257.00;5072971;27;45463;-50
2021/07/01 10:38:20;;;;;;;;;22.75;20.25;;;;;23.23;47.07;101262.84;5066493;27;45388;-50
2021/07/01 10:40:49;;;;;;;;;23.00;23.00;;;;;23.27;47.34;101266.25;5069254;27;45512;-50
2021/07/01 10:43:17;;;;;;;;;25.50;23.00;;;;;23.27;46.93;101259.00;5076987;27;45485;-54
2021/07/01 10:45:58;;;;;;;;;22.50;19.75;;;;;23.22;47.06;101258.41;5066679;27;45489;-53
2021/07/01 10:48:25;;;;;;;;;21.00;20.75;;;;;23.20;47.36;101266.63;5090201;27;46544;-48
2021/07/01 10:50:53;;;;;;;;;26.50;24.25;;;;;23.24;47.00;101261.00;5076284;27;45512;-49
2021/07/01 10:53:28;;;;;;;;;20.00;19.00;;;;;23.27;47.29;101266.25;5074840;27;45815;-51
2021/07/01 10:55:59;;;;;;;;;19.00;19.00;;;;;23.29;46.90;101272.44;5070849;27;45361;-50
2021/07/01 10:58:24;;;;;;;;;26.25;25.00;;;;;23.26;46.83;101269.94;5064555;27;46239;-52
2021/07/01 11:00:50;;;;;;;;;21.00;20.00;;;;;23.30;46.98;101272.31;5070154;27;45398;-53
2021/07/01 11:03:26;;;;;;;;;26.50;25.25;;;;;23.38;46.88;101277.25;5072506;27;45429;-53
2021/07/01 11:05:52;;;;;;;;;23.50;22.00;;;;;23.43;46.68;101270.53;5070371;27;45764;-54
2021/07/01 11:08:32;;;;;;;;;28.75;27.25;;;;;23.52;46.73;101270.91;5076434;27;47350;-51
2021/07/01 11:10:59;;;;;;;;;26.25;22.25;;;;;23.59;46.76;101267.69;5064306;27;45483;-50